Maldives Meteorological Service

TAFS

Station TAF
VRMM
VRMM 200500Z 2006/2112 08009KT 8000 FEW018 TEMPO 2009/2015 5000 -SHRA FEW018CB=
VRMH
VRMH 200500Z 2006/2106 05008KT 9999 FEW018TCU TEMPO 2006/2012 FEW019CB=
VRMK
VRMK 200500Z 2006/2106 07007KT 9999 FEW018 TEMPO 2006/2013 FEW019CB=
VRMT
VRMT 200500Z 2006/2106 09004KT 9999 FEW018 TEMPO 2007/2014 5000 -SHRA FEW018CB=
VRMG
VRMG 200500Z 2006/2112 10005KT 9999 FEW018 TEMPO 2008/2016 5000 -SHRA FEW018CB=